メインページ
METAR-TAF:

METAR-TAF

空港 :

ベリーズシティ, ベリーズ

フィリップス・S・W・ゴールドソン国際空港

緯度: 17-32N, 経度: 088-18W, 海抜: 5m

現時点の気象観測

当レポートは21分前の13:00(UTC)に作成
無風
気温 26°C
湿度 100%
気圧 1008 hPa
視程10km以上
高度1600ftの雲はほとんどない

METAR: MZBZ 251300Z 00000KT 9999 FEW016 26/26 A2977 Q1008 NOSIG

時間: 07:21 (13:21 UTC)

予報

当レポートは4時間21分前の09:00(UTC)に作成
予報は25日の 12時(UTC)から 26日の 12時(UTC)まで有効
の風 10kt
視程10km以上
高度2000ftの雲は散在している
確率 40% :
25日の 12時(UTC)から 25日の 23時(UTC)まで一時的に
視程: 5000m
高度1500ftの千切れ雲あり
にわか雨
確率 30% :
25日の 12時(UTC)から 25日の 18時(UTC)まで一時的に
視程: 3000m
高度1200ftの雲は散在している, 積乱雲.
激しい雷雨, 雨

TAF: MZBZ 250900Z 2512/2612 09010KT 9999 SCT020 PROB40 TEMPO 2512/2523 5000 SHRA BKN015 PROB30 TEMPO 2512/2518 3000 TSRA SCT012CB

4,000以上の空港の気象観測と天気予報(METAR報とTAF報)

利用可能な観測所は地図上に黄色い丸と赤い丸で示す。

丸の上にカーソルを重ねると観測所名を参照できる。

次にクリックすると気象観測と天気予報を参照できる。

マップの切り替え:黒色「×」印の緑ボタンをクリックして拡大、「-」印の緑ボタンをクリックして縮小、緑色の三角印をクリックして隣りの地図に切り替え


METAR-TAF: